sensor_id;sensor_type;location;lat;lon;timestamp;temperature;humidity
36710;DHT22;22694;51.040;3.684;2022-08-25T00:00:46;23.50;85.50
36710;DHT22;22694;51.040;3.684;2022-08-25T00:03:12;23.50;85.50
36710;DHT22;22694;51.040;3.684;2022-08-25T00:05:38;23.50;85.50
36710;DHT22;22694;51.040;3.684;2022-08-25T00:08:04;23.40;85.50
36710;DHT22;22694;51.040;3.684;2022-08-25T00:10:32;23.40;85.60
36710;DHT22;22694;51.040;3.684;2022-08-25T00:12:59;23.40;85.60
36710;DHT22;22694;51.040;3.684;2022-08-25T00:15:25;23.40;85.70
36710;DHT22;22694;51.040;3.684;2022-08-25T00:17:51;23.40;85.80
36710;DHT22;22694;51.040;3.684;2022-08-25T00:20:17;23.40;85.70
36710;DHT22;22694;51.040;3.684;2022-08-25T00:22:43;23.30;85.80
36710;DHT22;22694;51.040;3.684;2022-08-25T00:25:10;23.30;86.40
36710;DHT22;22694;51.040;3.684;2022-08-25T00:27:37;23.30;86.00
36710;DHT22;22694;51.040;3.684;2022-08-25T00:30:04;23.30;86.00
36710;DHT22;22694;51.040;3.684;2022-08-25T00:32:30;23.30;86.10
36710;DHT22;22694;51.040;3.684;2022-08-25T00:34:56;23.20;86.10
36710;DHT22;22694;51.040;3.684;2022-08-25T00:37:22;23.20;86.10
36710;DHT22;22694;51.040;3.684;2022-08-25T00:39:48;23.20;86.20
36710;DHT22;22694;51.040;3.684;2022-08-25T00:42:14;23.20;86.50
36710;DHT22;22694;51.040;3.684;2022-08-25T00:44:40;23.20;86.60
36710;DHT22;22694;51.040;3.684;2022-08-25T00:47:08;23.10;86.50
36710;DHT22;22694;51.040;3.684;2022-08-25T00:52:41;23.10;86.70
36710;DHT22;22694;51.040;3.684;2022-08-25T00:55:15;23.10;86.80
36710;DHT22;22694;51.040;3.684;2022-08-25T00:57:46;23.10;86.80
36710;DHT22;22694;51.040;3.684;2022-08-25T01:00:17;23.10;87.00
36710;DHT22;22694;51.040;3.684;2022-08-25T01:02:43;23.00;87.00
36710;DHT22;22694;51.040;3.684;2022-08-25T01:05:09;23.00;87.00
36710;DHT22;22694;51.040;3.684;2022-08-25T01:07:35;23.00;87.10
36710;DHT22;22694;51.040;3.684;2022-08-25T01:10:02;23.00;87.00
36710;DHT22;22694;51.040;3.684;2022-08-25T01:12:28;23.00;87.00
36710;DHT22;22694;51.040;3.684;2022-08-25T01:14:54;22.90;87.00
36710;DHT22;22694;51.040;3.684;2022-08-25T01:17:20;23.00;87.00
36710;DHT22;22694;51.040;3.684;2022-08-25T01:19:46;22.90;87.00
36710;DHT22;22694;51.040;3.684;2022-08-25T01:22:12;22.90;87.00
36710;DHT22;22694;51.040;3.684;2022-08-25T01:25:04;22.90;87.10
36710;DHT22;22694;51.040;3.684;2022-08-25T01:27:32;22.90;87.10
36710;DHT22;22694;51.040;3.684;2022-08-25T01:29:57;22.90;87.10
36710;DHT22;22694;51.040;3.684;2022-08-25T01:32:23;23.00;87.10
36710;DHT22;22694;51.040;3.684;2022-08-25T01:34:49;22.90;87.10
36710;DHT22;22694;51.040;3.684;2022-08-25T01:37:15;22.90;87.10
36710;DHT22;22694;51.040;3.684;2022-08-25T01:39:43;22.90;87.20
36710;DHT22;22694;51.040;3.684;2022-08-25T01:42:22;22.90;87.20
36710;DHT22;22694;51.040;3.684;2022-08-25T01:44:48;22.80;87.20
36710;DHT22;22694;51.040;3.684;2022-08-25T01:47:14;22.80;87.40
36710;DHT22;22694;51.040;3.684;2022-08-25T01:49:40;22.80;87.40
36710;DHT22;22694;51.040;3.684;2022-08-25T01:52:29;22.80;87.50
36710;DHT22;22694;51.040;3.684;2022-08-25T01:54:56;22.70;87.60
36710;DHT22;22694;51.040;3.684;2022-08-25T01:57:22;22.70;87.60
36710;DHT22;22694;51.040;3.684;2022-08-25T01:59:48;22.70;87.80
36710;DHT22;22694;51.040;3.684;2022-08-25T02:02:14;22.70;87.80
36710;DHT22;22694;51.040;3.684;2022-08-25T02:04:39;22.70;87.80
36710;DHT22;22694;51.040;3.684;2022-08-25T02:07:07;22.60;87.80
36710;DHT22;22694;51.040;3.684;2022-08-25T02:09:34;22.70;87.90
36710;DHT22;22694;51.040;3.684;2022-08-25T02:12:00;22.60;88.00
36710;DHT22;22694;51.040;3.684;2022-08-25T02:14:26;22.60;87.90
36710;DHT22;22694;51.040;3.684;2022-08-25T02:16:53;22.60;87.90
36710;DHT22;22694;51.040;3.684;2022-08-25T02:19:20;22.60;87.80
36710;DHT22;22694;51.040;3.684;2022-08-25T02:21:46;22.60;87.90
36710;DHT22;22694;51.040;3.684;2022-08-25T02:24:12;22.60;87.90
36710;DHT22;22694;51.040;3.684;2022-08-25T02:26:38;22.50;87.80
36710;DHT22;22694;51.040;3.684;2022-08-25T02:29:05;22.50;87.70
36710;DHT22;22694;51.040;3.684;2022-08-25T02:31:31;22.50;87.60
36710;DHT22;22694;51.040;3.684;2022-08-25T02:33:57;22.50;87.60
36710;DHT22;22694;51.040;3.684;2022-08-25T02:36:23;22.50;87.50
36710;DHT22;22694;51.040;3.684;2022-08-25T02:38:49;22.50;87.60
36710;DHT22;22694;51.040;3.684;2022-08-25T02:41:21;22.40;87.60
36710;DHT22;22694;51.040;3.684;2022-08-25T02:43:48;22.40;87.70
36710;DHT22;22694;51.040;3.684;2022-08-25T02:46:15;22.40;87.70
36710;DHT22;22694;51.040;3.684;2022-08-25T02:48:41;22.40;87.80
36710;DHT22;22694;51.040;3.684;2022-08-25T02:51:08;22.40;87.90
36710;DHT22;22694;51.040;3.684;2022-08-25T02:53:35;22.40;87.80
36710;DHT22;22694;51.040;3.684;2022-08-25T02:56:02;22.40;87.80
36710;DHT22;22694;51.040;3.684;2022-08-25T02:58:29;22.30;87.80
36710;DHT22;22694;51.040;3.684;2022-08-25T03:00:54;22.30;87.80
36710;DHT22;22694;51.040;3.684;2022-08-25T03:03:21;22.30;87.80
36710;DHT22;22694;51.040;3.684;2022-08-25T03:05:47;22.20;87.80
36710;DHT22;22694;51.040;3.684;2022-08-25T03:08:13;22.30;87.80
36710;DHT22;22694;51.040;3.684;2022-08-25T03:10:39;22.20;87.70
36710;DHT22;22694;51.040;3.684;2022-08-25T03:13:05;22.20;87.80
36710;DHT22;22694;51.040;3.684;2022-08-25T03:15:31;22.20;87.80
36710;DHT22;22694;51.040;3.684;2022-08-25T03:17:57;22.20;87.80
36710;DHT22;22694;51.040;3.684;2022-08-25T03:20:25;22.10;87.90
36710;DHT22;22694;51.040;3.684;2022-08-25T03:22:52;22.10;87.90
36710;DHT22;22694;51.040;3.684;2022-08-25T03:25:17;22.10;88.00
36710;DHT22;22694;51.040;3.684;2022-08-25T03:28:02;22.10;88.00
36710;DHT22;22694;51.040;3.684;2022-08-25T03:30:28;22.10;88.00
36710;DHT22;22694;51.040;3.684;2022-08-25T03:32:54;22.00;88.00
36710;DHT22;22694;51.040;3.684;2022-08-25T03:35:20;22.00;88.60
36710;DHT22;22694;51.040;3.684;2022-08-25T03:37:46;22.00;88.10
36710;DHT22;22694;51.040;3.684;2022-08-25T03:40:13;22.00;88.10
36710;DHT22;22694;51.040;3.684;2022-08-25T03:42:41;22.00;88.10
36710;DHT22;22694;51.040;3.684;2022-08-25T03:45:08;22.00;88.20
36710;DHT22;22694;51.040;3.684;2022-08-25T03:47:37;21.90;88.20
36710;DHT22;22694;51.040;3.684;2022-08-25T03:50:04;21.90;88.30
36710;DHT22;22694;51.040;3.684;2022-08-25T03:52:30;21.90;88.40
36710;DHT22;22694;51.040;3.684;2022-08-25T03:54:56;21.80;88.40
36710;DHT22;22694;51.040;3.684;2022-08-25T03:57:21;21.80;88.40
36710;DHT22;22694;51.040;3.684;2022-08-25T03:59:47;21.90;88.80
36710;DHT22;22694;51.040;3.684;2022-08-25T04:02:12;22.00;88.90
36710;DHT22;22694;51.040;3.684;2022-08-25T04:04:38;22.00;88.10
36710;DHT22;22694;51.040;3.684;2022-08-25T04:07:05;22.00;88.10
36710;DHT22;22694;51.040;3.684;2022-08-25T04:09:31;21.90;88.20
36710;DHT22;22694;51.040;3.684;2022-08-25T04:11:57;21.90;88.20
36710;DHT22;22694;51.040;3.684;2022-08-25T04:14:22;21.80;88.40
36710;DHT22;22694;51.040;3.684;2022-08-25T04:16:48;21.80;88.40
36710;DHT22;22694;51.040;3.684;2022-08-25T04:19:14;21.80;88.40
36710;DHT22;22694;51.040;3.684;2022-08-25T04:21:40;21.80;88.50
36710;DHT22;22694;51.040;3.684;2022-08-25T04:24:08;21.80;88.60
36710;DHT22;22694;51.040;3.684;2022-08-25T04:26:40;21.70;88.60
36710;DHT22;22694;51.040;3.684;2022-08-25T04:29:08;21.90;89.30
36710;DHT22;22694;51.040;3.684;2022-08-25T04:31:35;22.00;89.60
36710;DHT22;22694;51.040;3.684;2022-08-25T04:34:02;22.10;89.60
36710;DHT22;22694;51.040;3.684;2022-08-25T04:36:28;22.20;89.50
36710;DHT22;22694;51.040;3.684;2022-08-25T04:38:55;22.20;90.00
36710;DHT22;22694;51.040;3.684;2022-08-25T04:41:22;22.20;89.20
36710;DHT22;22694;51.040;3.684;2022-08-25T04:43:49;22.30;89.10
36710;DHT22;22694;51.040;3.684;2022-08-25T04:46:18;22.30;89.00
36710;DHT22;22694;51.040;3.684;2022-08-25T04:48:44;22.30;88.80
36710;DHT22;22694;51.040;3.684;2022-08-25T04:51:13;22.30;88.70
36710;DHT22;22694;51.040;3.684;2022-08-25T04:53:40;22.30;88.60
36710;DHT22;22694;51.040;3.684;2022-08-25T04:56:10;22.30;88.50
36710;DHT22;22694;51.040;3.684;2022-08-25T04:58:36;22.30;88.40
36710;DHT22;22694;51.040;3.684;2022-08-25T05:03:29;22.30;88.30
36710;DHT22;22694;51.040;3.684;2022-08-25T05:05:55;22.30;88.20
36710;DHT22;22694;51.040;3.684;2022-08-25T05:08:21;22.30;88.10
36710;DHT22;22694;51.040;3.684;2022-08-25T05:10:47;22.40;88.10
36710;DHT22;22694;51.040;3.684;2022-08-25T05:13:12;22.40;88.10
36710;DHT22;22694;51.040;3.684;2022-08-25T05:15:38;22.40;88.00
36710;DHT22;22694;51.040;3.684;2022-08-25T05:18:17;22.40;87.90
36710;DHT22;22694;51.040;3.684;2022-08-25T05:20:43;22.40;87.80
36710;DHT22;22694;51.040;3.684;2022-08-25T05:23:09;22.40;87.80
36710;DHT22;22694;51.040;3.684;2022-08-25T05:25:35;22.40;87.70
36710;DHT22;22694;51.040;3.684;2022-08-25T05:28:01;22.40;87.70
36710;DHT22;22694;51.040;3.684;2022-08-25T05:30:26;22.40;87.70
36710;DHT22;22694;51.040;3.684;2022-08-25T05:32:52;22.40;87.60
36710;DHT22;22694;51.040;3.684;2022-08-25T05:35:18;22.30;87.50
36710;DHT22;22694;51.040;3.684;2022-08-25T05:37:45;22.40;87.60
36710;DHT22;22694;51.040;3.684;2022-08-25T05:40:11;22.40;87.50
36710;DHT22;22694;51.040;3.684;2022-08-25T05:42:37;22.40;87.40
36710;DHT22;22694;51.040;3.684;2022-08-25T05:45:04;22.40;87.40
36710;DHT22;22694;51.040;3.684;2022-08-25T05:47:30;22.40;87.40
36710;DHT22;22694;51.040;3.684;2022-08-25T05:49:56;22.30;87.30
36710;DHT22;22694;51.040;3.684;2022-08-25T05:52:21;22.40;87.40
36710;DHT22;22694;51.040;3.684;2022-08-25T05:54:47;22.40;87.40
36710;DHT22;22694;51.040;3.684;2022-08-25T05:57:13;22.30;87.30
36710;DHT22;22694;51.040;3.684;2022-08-25T05:59:38;22.30;87.30
36710;DHT22;22694;51.040;3.684;2022-08-25T06:02:04;22.30;87.30
36710;DHT22;22694;51.040;3.684;2022-08-25T06:04:49;22.30;87.30
36710;DHT22;22694;51.040;3.684;2022-08-25T06:07:15;22.30;87.30
36710;DHT22;22694;51.040;3.684;2022-08-25T06:09:41;22.30;87.30
36710;DHT22;22694;51.040;3.684;2022-08-25T06:12:07;22.30;87.30
36710;DHT22;22694;51.040;3.684;2022-08-25T06:14:33;22.30;87.30
36710;DHT22;22694;51.040;3.684;2022-08-25T06:16:59;22.30;87.40
36710;DHT22;22694;51.040;3.684;2022-08-25T06:19:25;22.30;87.40
36710;DHT22;22694;51.040;3.684;2022-08-25T06:21:55;22.30;87.40
36710;DHT22;22694;51.040;3.684;2022-08-25T06:24:22;22.40;87.40
36710;DHT22;22694;51.040;3.684;2022-08-25T06:26:47;22.30;87.40
36710;DHT22;22694;51.040;3.684;2022-08-25T06:29:13;22.30;87.40
36710;DHT22;22694;51.040;3.684;2022-08-25T06:31:38;22.40;87.50
36710;DHT22;22694;51.040;3.684;2022-08-25T06:34:04;22.40;87.50
36710;DHT22;22694;51.040;3.684;2022-08-25T06:36:30;22.40;87.50
36710;DHT22;22694;51.040;3.684;2022-08-25T06:38:56;22.40;87.80
36710;DHT22;22694;51.040;3.684;2022-08-25T06:41:22;22.30;88.50
36710;DHT22;22694;51.040;3.684;2022-08-25T06:43:47;22.30;89.30
36710;DHT22;22694;51.040;3.684;2022-08-25T06:46:17;22.40;89.30
36710;DHT22;22694;51.040;3.684;2022-08-25T06:48:43;22.40;89.30
36710;DHT22;22694;51.040;3.684;2022-08-25T06:51:11;22.40;89.20
36710;DHT22;22694;51.040;3.684;2022-08-25T06:53:37;22.40;89.20
36710;DHT22;22694;51.040;3.684;2022-08-25T06:56:04;22.50;89.20
36710;DHT22;22694;51.040;3.684;2022-08-25T06:58:30;22.50;89.20
36710;DHT22;22694;51.040;3.684;2022-08-25T07:00:56;22.50;89.10
36710;DHT22;22694;51.040;3.684;2022-08-25T07:03:30;22.60;89.00
36710;DHT22;22694;51.040;3.684;2022-08-25T07:05:56;22.70;88.80
36710;DHT22;22694;51.040;3.684;2022-08-25T07:08:22;22.70;88.60
36710;DHT22;22694;51.040;3.684;2022-08-25T07:10:48;22.70;88.40
36710;DHT22;22694;51.040;3.684;2022-08-25T07:13:14;22.80;88.40
36710;DHT22;22694;51.040;3.684;2022-08-25T07:15:40;22.80;88.20
36710;DHT22;22694;51.040;3.684;2022-08-25T07:18:07;22.80;88.10
36710;DHT22;22694;51.040;3.684;2022-08-25T07:20:34;22.80;88.00
36710;DHT22;22694;51.040;3.684;2022-08-25T07:23:00;22.80;88.00
36710;DHT22;22694;51.040;3.684;2022-08-25T07:25:26;22.80;87.90
36710;DHT22;22694;51.040;3.684;2022-08-25T07:27:52;22.90;88.00
36710;DHT22;22694;51.040;3.684;2022-08-25T07:30:18;22.90;88.00
36710;DHT22;22694;51.040;3.684;2022-08-25T07:32:44;22.90;87.90
36710;DHT22;22694;51.040;3.684;2022-08-25T07:35:11;22.90;87.90
36710;DHT22;22694;51.040;3.684;2022-08-25T07:37:43;22.90;88.00
36710;DHT22;22694;51.040;3.684;2022-08-25T07:40:16;22.90;87.90
36710;DHT22;22694;51.040;3.684;2022-08-25T07:42:43;22.90;87.90
36710;DHT22;22694;51.040;3.684;2022-08-25T07:45:09;22.90;88.00
36710;DHT22;22694;51.040;3.684;2022-08-25T07:47:36;22.90;88.00
36710;DHT22;22694;51.040;3.684;2022-08-25T07:50:05;23.00;88.00
36710;DHT22;22694;51.040;3.684;2022-08-25T07:52:30;23.00;88.00
36710;DHT22;22694;51.040;3.684;2022-08-25T07:54:56;23.00;87.90
36710;DHT22;22694;51.040;3.684;2022-08-25T07:57:22;23.00;87.80
36710;DHT22;22694;51.040;3.684;2022-08-25T07:59:50;23.00;87.60
36710;DHT22;22694;51.040;3.684;2022-08-25T08:02:16;23.00;87.60
36710;DHT22;22694;51.040;3.684;2022-08-25T08:04:42;23.00;87.60
36710;DHT22;22694;51.040;3.684;2022-08-25T08:07:10;23.00;87.60
36710;DHT22;22694;51.040;3.684;2022-08-25T08:09:36;23.00;87.40
36710;DHT22;22694;51.040;3.684;2022-08-25T08:12:03;23.00;87.30
36710;DHT22;22694;51.040;3.684;2022-08-25T08:14:30;23.00;87.20
36710;DHT22;22694;51.040;3.684;2022-08-25T08:16:55;23.10;87.20
36710;DHT22;22694;51.040;3.684;2022-08-25T08:19:22;23.00;87.40
36710;DHT22;22694;51.040;3.684;2022-08-25T08:21:47;23.10;87.70
36710;DHT22;22694;51.040;3.684;2022-08-25T08:24:15;23.00;87.90
36710;DHT22;22694;51.040;3.684;2022-08-25T08:26:40;23.10;88.00
36710;DHT22;22694;51.040;3.684;2022-08-25T08:29:06;23.10;88.60
36710;DHT22;22694;51.040;3.684;2022-08-25T08:31:31;23.10;88.00
36710;DHT22;22694;51.040;3.684;2022-08-25T08:33:57;23.10;88.20
36710;DHT22;22694;51.040;3.684;2022-08-25T08:36:24;23.10;87.90
36710;DHT22;22694;51.040;3.684;2022-08-25T08:38:50;23.10;87.80
36710;DHT22;22694;51.040;3.684;2022-08-25T08:52:45;23.00;87.50
36710;DHT22;22694;51.040;3.684;2022-08-25T08:55:25;22.90;87.60
36710;DHT22;22694;51.040;3.684;2022-08-25T08:57:54;22.90;87.60
36710;DHT22;22694;51.040;3.684;2022-08-25T09:00:21;22.90;87.70
36710;DHT22;22694;51.040;3.684;2022-08-25T09:03:05;22.80;87.70
36710;DHT22;22694;51.040;3.684;2022-08-25T09:05:37;22.80;87.60
36710;DHT22;22694;51.040;3.684;2022-08-25T09:08:10;22.80;88.20
36710;DHT22;22694;51.040;3.684;2022-08-25T09:10:52;22.80;87.60
36710;DHT22;22694;51.040;3.684;2022-08-25T09:22:14;23.90;80.90
36710;DHT22;22694;51.040;3.684;2022-08-25T09:27:32;23.70;82.70
36710;DHT22;22694;51.040;3.684;2022-08-25T09:30:15;23.60;83.70
36710;DHT22;22694;51.040;3.684;2022-08-25T09:32:48;23.50;84.70
36710;DHT22;22694;51.040;3.684;2022-08-25T09:35:27;23.50;85.60
36710;DHT22;22694;51.040;3.684;2022-08-25T09:38:03;23.40;86.10
36710;DHT22;22694;51.040;3.684;2022-08-25T09:40:32;23.40;86.80
36710;DHT22;22694;51.040;3.684;2022-08-25T09:43:00;23.30;87.00
36710;DHT22;22694;51.040;3.684;2022-08-25T09:45:41;23.30;87.00
36710;DHT22;22694;51.040;3.684;2022-08-25T09:48:24;23.30;85.40
36710;DHT22;22694;51.040;3.684;2022-08-25T09:50:52;23.40;85.00
36710;DHT22;22694;51.040;3.684;2022-08-25T09:53:19;23.50;80.50
36710;DHT22;22694;51.040;3.684;2022-08-25T09:55:46;23.60;82.50
36710;DHT22;22694;51.040;3.684;2022-08-25T09:58:21;23.60;83.50
36710;DHT22;22694;51.040;3.684;2022-08-25T10:01:12;23.60;83.80
36710;DHT22;22694;51.040;3.684;2022-08-25T10:03:56;23.50;83.90
36710;DHT22;22694;51.040;3.684;2022-08-25T10:06:22;23.50;84.30
36710;DHT22;22694;51.040;3.684;2022-08-25T10:11:49;23.60;84.60
36710;DHT22;22694;51.040;3.684;2022-08-25T10:14:18;24.10;79.80
36710;DHT22;22694;51.040;3.684;2022-08-25T10:16:45;24.20;80.90
36710;DHT22;22694;51.040;3.684;2022-08-25T10:24:29;24.10;82.00
36710;DHT22;22694;51.040;3.684;2022-08-25T10:35:15;24.20;81.70
36710;DHT22;22694;51.040;3.684;2022-08-25T10:43:34;24.50;81.60
36710;DHT22;22694;51.040;3.684;2022-08-25T10:49:02;24.60;82.10
36710;DHT22;22694;51.040;3.684;2022-08-25T10:51:48;24.70;82.10
36710;DHT22;22694;51.040;3.684;2022-08-25T10:57:13;24.80;82.30
36710;DHT22;22694;51.040;3.684;2022-08-25T10:59:59;24.90;82.30
36710;DHT22;22694;51.040;3.684;2022-08-25T11:05:27;25.00;82.60
36710;DHT22;22694;51.040;3.684;2022-08-25T11:08:35;25.10;82.60
36710;DHT22;22694;51.040;3.684;2022-08-25T11:11:12;25.20;82.40
36710;DHT22;22694;51.040;3.684;2022-08-25T11:13:59;25.20;82.30
36710;DHT22;22694;51.040;3.684;2022-08-25T11:16:44;25.30;82.20
36710;DHT22;22694;51.040;3.684;2022-08-25T11:22:03;25.40;82.10
36710;DHT22;22694;51.040;3.684;2022-08-25T11:27:27;25.50;81.70
36710;DHT22;22694;51.040;3.684;2022-08-25T11:30:04;25.60;82.00
36710;DHT22;22694;51.040;3.684;2022-08-25T11:32:32;25.60;81.60
36710;DHT22;22694;51.040;3.684;2022-08-25T11:35:11;25.70;81.70
36710;DHT22;22694;51.040;3.684;2022-08-25T11:40:58;25.80;81.90
36710;DHT22;22694;51.040;3.684;2022-08-25T11:43:46;25.80;81.60
36710;DHT22;22694;51.040;3.684;2022-08-25T11:46:23;25.90;81.70
36710;DHT22;22694;51.040;3.684;2022-08-25T11:49:10;25.90;81.90
36710;DHT22;22694;51.040;3.684;2022-08-25T11:51:45;26.00;81.80
36710;DHT22;22694;51.040;3.684;2022-08-25T11:57:07;26.10;81.60
36710;DHT22;22694;51.040;3.684;2022-08-25T12:05:09;26.20;81.90
36710;DHT22;22694;51.040;3.684;2022-08-25T12:13:41;26.50;82.80
36710;DHT22;22694;51.040;3.684;2022-08-25T12:30:10;27.00;81.90
36710;DHT22;22694;51.040;3.684;2022-08-25T12:35:54;27.20;82.00
36710;DHT22;22694;51.040;3.684;2022-08-25T12:41:23;27.30;81.80
36710;DHT22;22694;51.040;3.684;2022-08-25T12:43:52;27.40;81.70
36710;DHT22;22694;51.040;3.684;2022-08-25T12:49:12;27.50;81.80
36710;DHT22;22694;51.040;3.684;2022-08-25T12:52:20;27.70;81.80
36710;DHT22;22694;51.040;3.684;2022-08-25T12:54:58;27.70;81.90
36710;DHT22;22694;51.040;3.684;2022-08-25T12:59:56;27.90;82.30
36710;DHT22;22694;51.040;3.684;2022-08-25T13:06:28;27.90;82.00
36710;DHT22;22694;51.040;3.684;2022-08-25T13:11:35;28.00;81.30
36710;DHT22;22694;51.040;3.684;2022-08-25T13:14:05;28.10;81.30
36710;DHT22;22694;51.040;3.684;2022-08-25T13:16:32;28.10;81.00
36710;DHT22;22694;51.040;3.684;2022-08-25T13:19:03;28.20;81.20
36710;DHT22;22694;51.040;3.684;2022-08-25T13:21:39;28.20;80.90
36710;DHT22;22694;51.040;3.684;2022-08-25T13:24:49;28.30;80.80
36710;DHT22;22694;51.040;3.684;2022-08-25T13:26:59;28.30;80.70
36710;DHT22;22694;51.040;3.684;2022-08-25T13:29:28;28.30;80.60
36710;DHT22;22694;51.040;3.684;2022-08-25T13:31:57;28.40;80.80
36710;DHT22;22694;51.040;3.684;2022-08-25T13:34:25;28.40;80.60
36710;DHT22;22694;51.040;3.684;2022-08-25T13:36:52;28.40;80.40
36710;DHT22;22694;51.040;3.684;2022-08-25T13:39:37;28.50;80.00
36710;DHT22;22694;51.040;3.684;2022-08-25T13:42:05;28.50;79.70
36710;DHT22;22694;51.040;3.684;2022-08-25T13:44:36;28.50;79.40
36710;DHT22;22694;51.040;3.684;2022-08-25T13:47:08;28.60;79.20
36710;DHT22;22694;51.040;3.684;2022-08-25T13:49:35;28.60;79.30
36710;DHT22;22694;51.040;3.684;2022-08-25T13:52:01;28.70;79.40
36710;DHT22;22694;51.040;3.684;2022-08-25T13:54:45;28.70;79.20
36710;DHT22;22694;51.040;3.684;2022-08-25T13:57:22;28.70;79.10
36710;DHT22;22694;51.040;3.684;2022-08-25T13:59:59;28.70;78.60
36710;DHT22;22694;51.040;3.684;2022-08-25T14:02:44;28.70;78.50
36710;DHT22;22694;51.040;3.684;2022-08-25T14:05:12;28.70;78.60
36710;DHT22;22694;51.040;3.684;2022-08-25T14:07:38;28.80;78.50
36710;DHT22;22694;51.040;3.684;2022-08-25T14:10:10;28.80;78.70
36710;DHT22;22694;51.040;3.684;2022-08-25T14:13:14;28.70;78.50
36710;DHT22;22694;51.040;3.684;2022-08-25T14:15:42;28.70;78.30
36710;DHT22;22694;51.040;3.684;2022-08-25T14:18:19;28.80;77.80
36710;DHT22;22694;51.040;3.684;2022-08-25T14:20:48;28.80;78.60
36710;DHT22;22694;51.040;3.684;2022-08-25T14:23:18;28.80;78.20
36710;DHT22;22694;51.040;3.684;2022-08-25T14:25:47;28.80;78.10
36710;DHT22;22694;51.040;3.684;2022-08-25T14:28:16;28.80;78.00
36710;DHT22;22694;51.040;3.684;2022-08-25T14:30:46;28.80;77.80
36710;DHT22;22694;51.040;3.684;2022-08-25T14:33:15;28.80;77.70
36710;DHT22;22694;51.040;3.684;2022-08-25T14:35:45;28.80;77.70
36710;DHT22;22694;51.040;3.684;2022-08-25T14:38:11;28.90;77.60
36710;DHT22;22694;51.040;3.684;2022-08-25T14:40:38;28.90;77.50
36710;DHT22;22694;51.040;3.684;2022-08-25T14:43:05;28.90;78.00
36710;DHT22;22694;51.040;3.684;2022-08-25T14:45:30;28.80;77.20
36710;DHT22;22694;51.040;3.684;2022-08-25T14:47:59;28.90;77.10
36710;DHT22;22694;51.040;3.684;2022-08-25T14:50:27;28.90;76.90
36710;DHT22;22694;51.040;3.684;2022-08-25T14:52:53;28.90;76.70
36710;DHT22;22694;51.040;3.684;2022-08-25T14:55:19;28.80;76.50
36710;DHT22;22694;51.040;3.684;2022-08-25T14:57:45;28.80;76.30
36710;DHT22;22694;51.040;3.684;2022-08-25T15:00:11;28.80;76.20
36710;DHT22;22694;51.040;3.684;2022-08-25T15:02:41;28.80;76.30
36710;DHT22;22694;51.040;3.684;2022-08-25T15:05:08;28.80;76.30
36710;DHT22;22694;51.040;3.684;2022-08-25T15:07:37;28.80;76.30
36710;DHT22;22694;51.040;3.684;2022-08-25T15:10:21;28.70;76.30
36710;DHT22;22694;51.040;3.684;2022-08-25T15:12:47;28.70;76.30
36710;DHT22;22694;51.040;3.684;2022-08-25T15:15:13;28.70;76.40
36710;DHT22;22694;51.040;3.684;2022-08-25T15:17:40;28.70;76.50
36710;DHT22;22694;51.040;3.684;2022-08-25T15:20:06;28.70;76.60
36710;DHT22;22694;51.040;3.684;2022-08-25T15:22:32;28.60;76.60
36710;DHT22;22694;51.040;3.684;2022-08-25T15:24:58;28.70;76.70
36710;DHT22;22694;51.040;3.684;2022-08-25T15:27:24;28.60;76.70
36710;DHT22;22694;51.040;3.684;2022-08-25T15:29:49;28.60;76.70
36710;DHT22;22694;51.040;3.684;2022-08-25T15:32:15;28.60;76.70
36710;DHT22;22694;51.040;3.684;2022-08-25T15:34:40;28.50;76.60
36710;DHT22;22694;51.040;3.684;2022-08-25T15:37:12;28.50;76.20
36710;DHT22;22694;51.040;3.684;2022-08-25T15:39:39;28.50;76.50
36710;DHT22;22694;51.040;3.684;2022-08-25T15:42:05;28.40;75.90
36710;DHT22;22694;51.040;3.684;2022-08-25T15:44:31;28.30;75.70
36710;DHT22;22694;51.040;3.684;2022-08-25T15:46:57;28.30;75.50
36710;DHT22;22694;51.040;3.684;2022-08-25T15:49:23;28.20;75.00
36710;DHT22;22694;51.040;3.684;2022-08-25T15:51:51;28.10;75.10
36710;DHT22;22694;51.040;3.684;2022-08-25T15:54:18;28.10;76.00
36710;DHT22;22694;51.040;3.684;2022-08-25T15:56:44;28.10;75.60
36710;DHT22;22694;51.040;3.684;2022-08-25T15:59:10;28.00;75.80
36710;DHT22;22694;51.040;3.684;2022-08-25T16:01:38;28.00;75.70
36710;DHT22;22694;51.040;3.684;2022-08-25T16:04:05;27.90;75.90
36710;DHT22;22694;51.040;3.684;2022-08-25T16:06:30;27.90;75.60
36710;DHT22;22694;51.040;3.684;2022-08-25T16:08:56;27.80;75.30
36710;DHT22;22694;51.040;3.684;2022-08-25T16:11:25;27.80;75.30
36710;DHT22;22694;51.040;3.684;2022-08-25T16:13:53;27.70;75.60
36710;DHT22;22694;51.040;3.684;2022-08-25T16:16:22;27.60;75.50
36710;DHT22;22694;51.040;3.684;2022-08-25T16:18:49;27.60;75.30
36710;DHT22;22694;51.040;3.684;2022-08-25T16:21:17;27.50;75.50
36710;DHT22;22694;51.040;3.684;2022-08-25T16:23:44;27.50;75.60
36710;DHT22;22694;51.040;3.684;2022-08-25T16:26:10;27.40;76.30
36710;DHT22;22694;51.040;3.684;2022-08-25T16:28:37;27.40;76.50
36710;DHT22;22694;51.040;3.684;2022-08-25T16:31:03;27.40;76.80
36710;DHT22;22694;51.040;3.684;2022-08-25T16:33:30;27.40;76.60
36710;DHT22;22694;51.040;3.684;2022-08-25T16:36:22;27.30;76.20
36710;DHT22;22694;51.040;3.684;2022-08-25T16:38:50;27.30;76.30
36710;DHT22;22694;51.040;3.684;2022-08-25T16:41:18;27.20;76.00
36710;DHT22;22694;51.040;3.684;2022-08-25T16:43:44;27.20;76.10
36710;DHT22;22694;51.040;3.684;2022-08-25T16:46:13;27.10;75.80
36710;DHT22;22694;51.040;3.684;2022-08-25T16:48:40;27.10;76.10
36710;DHT22;22694;51.040;3.684;2022-08-25T16:51:08;27.00;76.20
36710;DHT22;22694;51.040;3.684;2022-08-25T16:53:33;27.00;76.20
36710;DHT22;22694;51.040;3.684;2022-08-25T16:56:18;26.90;76.10
36710;DHT22;22694;51.040;3.684;2022-08-25T16:58:56;26.90;76.00
36710;DHT22;22694;51.040;3.684;2022-08-25T17:01:23;26.80;75.90
36710;DHT22;22694;51.040;3.684;2022-08-25T17:03:54;26.80;75.90
36710;DHT22;22694;51.040;3.684;2022-08-25T17:06:22;26.70;75.90
36710;DHT22;22694;51.040;3.684;2022-08-25T17:08:48;26.60;75.60
36710;DHT22;22694;51.040;3.684;2022-08-25T17:11:21;26.60;76.10
36710;DHT22;22694;51.040;3.684;2022-08-25T17:13:49;26.60;76.10
36710;DHT22;22694;51.040;3.684;2022-08-25T17:16:17;26.50;76.00
36710;DHT22;22694;51.040;3.684;2022-08-25T17:18:43;26.50;76.20
36710;DHT22;22694;51.040;3.684;2022-08-25T17:21:11;26.50;76.30
36710;DHT22;22694;51.040;3.684;2022-08-25T17:23:39;26.50;76.30
36710;DHT22;22694;51.040;3.684;2022-08-25T17:26:06;26.50;76.50
36710;DHT22;22694;51.040;3.684;2022-08-25T17:28:32;26.40;76.40
36710;DHT22;22694;51.040;3.684;2022-08-25T17:30:58;26.40;75.90
36710;DHT22;22694;51.040;3.684;2022-08-25T17:33:24;26.30;76.10
36710;DHT22;22694;51.040;3.684;2022-08-25T17:35:52;26.20;76.10